Time;durP1;ratioP1;P1;durP2;ratioP2;P2;SDS_P1;SDS_P2;PMS_P1;PMS_P2;Temp;Humidity;BMP_temperature;BMP_pressure;BME280_temperature;BME280_humidity;BME280_pressure;Samples;Min_cycle;Max_cycle;Signal;HPM_P1;HPM_P2
2022/10/30 00:00:45;;;;;;;;;;;282.10;2278.40;;;;;;5030423;28;19909;-60
2022/10/30 00:03:12;;;;;;;;;;;282.10;2278.40;;;;;;5030584;28;19916;-62
2022/10/30 00:05:44;;;;;;;;;;;282.10;2278.40;;;;;;5030187;28;20315;-61
2022/10/30 00:08:11;;;;;;;;;;;282.10;2278.40;;;;;;5030662;28;20008;-61
2022/10/30 00:10:36;;;;;;;;;;;282.10;2278.40;;;;;;5030508;28;19924;-61
2022/10/30 00:13:02;;;;;;;;;;;282.00;2278.40;;;;;;5030445;28;19909;-61
2022/10/30 00:15:28;;;;;;;;;;;282.00;2278.40;;;;;;5030262;28;19955;-62
2022/10/30 00:17:53;;;;;;;;;;;281.90;2278.40;;;;;;5030558;28;19909;-62
2022/10/30 00:20:19;;;;;;;;;;;282.00;2278.40;;;;;;5030296;28;20352;-62
2022/10/30 00:22:44;;;;;;;;;;;282.00;2278.40;;;;;;5030501;28;20099;-62
2022/10/30 00:25:10;;;;;;;;;;;281.70;2278.40;;;;;;5030220;28;20003;-60
2022/10/30 00:27:35;;;;;;;;;;;281.70;2278.40;;;;;;5030350;28;19909;-61
2022/10/30 00:30:01;;;;;;;;;;;281.70;2278.40;;;;;;5030334;28;19970;-62
2022/10/30 00:32:26;;;;;;;;;;;281.70;2278.40;;;;;;5029974;28;19909;-62
2022/10/30 00:34:52;;;;;;;;;;;281.70;2278.40;;;;;;5030294;28;19910;-61
2022/10/30 00:37:17;;;;;;;;;;;281.70;2278.40;;;;;;5030107;28;20052;-62
2022/10/30 00:39:43;;;;;;;;;;;281.80;2278.40;;;;;;5033722;28;19917;-62
2022/10/30 00:42:12;;;;;;;;;;;281.80;2278.40;;;;;;5034347;28;19910;-61
2022/10/30 00:44:44;;;;;;;;;;;281.80;2278.40;;;;;;5034046;28;19917;-61
2022/10/30 00:47:14;;;;;;;;;;;281.90;2278.40;;;;;;5033984;28;20279;-61
2022/10/30 00:49:46;;;;;;;;;;;281.90;2278.40;;;;;;5034150;28;19909;-60
2022/10/30 00:52:12;;;;;;;;;;;281.90;2278.40;;;;;;5034266;28;19914;-62
2022/10/30 00:54:37;;;;;;;;;;;281.90;2278.40;;;;;;5033965;28;20279;-62
2022/10/30 00:57:05;;;;;;;;;;;281.80;2278.40;;;;;;5034055;28;20016;-61
2022/10/30 00:59:32;;;;;;;;;;;281.90;2278.40;;;;;;5033923;28;20298;-61
2022/10/30 01:01:57;;;;;;;;;;;281.90;2278.40;;;;;;5033532;28;20274;-61
2022/10/30 01:04:24;;;;;;;;;;;281.90;2278.40;;;;;;5033824;28;19916;-62
2022/10/30 01:06:51;;;;;;;;;;;281.90;2278.40;;;;;;5033373;28;19972;-61
2022/10/30 01:09:20;;;;;;;;;;;281.90;2278.40;;;;;;5033595;28;19913;-62
2022/10/30 01:11:45;;;;;;;;;;;281.90;2278.40;;;;;;5033351;28;19943;-61
2022/10/30 01:14:13;;;;;;;;;;;282.00;2278.40;;;;;;5033628;28;19913;-61
2022/10/30 01:16:57;;;;;;;;;;;281.90;2278.40;;;;;;5033356;28;19955;-61
2022/10/30 01:19:31;;;;;;;;;;;282.00;2278.40;;;;;;5033588;28;19916;-62
2022/10/30 01:21:57;;;;;;;;;;;282.00;2278.40;;;;;;5033260;28;19915;-62
2022/10/30 01:24:41;;;;;;;;;;;281.90;2278.40;;;;;;5033529;28;20280;-62
2022/10/30 01:27:13;;;;;;;;;;;281.80;2278.40;;;;;;5033205;28;19916;-62
2022/10/30 01:29:57;;;;;;;;;;;281.70;2278.40;;;;;;5033112;28;19915;-62
2022/10/30 01:32:25;;;;;;;;;;;281.70;2278.40;;;;;;5033203;28;19920;-61
2022/10/30 01:34:51;;;;;;;;;;;281.70;2278.40;;;;;;5033207;28;19921;-60
2022/10/30 01:37:35;;;;;;;;;;;281.70;2278.40;;;;;;5032947;28;20429;-61
2022/10/30 01:40:11;;;;;;;;;;;281.70;2278.40;;;;;;5033268;28;20414;-60
2022/10/30 01:42:40;;;;;;;;;;;281.80;2278.40;;;;;;5032986;28;20418;-61
2022/10/30 01:45:06;;;;;;;;;;;281.80;2278.40;;;;;;5032803;28;19909;-60
2022/10/30 01:47:50;;;;;;;;;;;281.80;2278.40;;;;;;5032815;28;19955;-60
2022/10/30 01:50:21;;;;;;;;;;;281.70;2278.40;;;;;;5032428;28;19913;-61
2022/10/30 01:52:47;;;;;;;;;;;281.70;2278.40;;;;;;5032879;28;19964;-61
2022/10/30 01:55:21;;;;;;;;;;;281.70;2278.40;;;;;;5032971;28;19952;-61
2022/10/30 01:57:59;;;;;;;;;;;281.70;2278.40;;;;;;5032665;28;19992;-61
2022/10/30 02:00:26;;;;;;;;;;;281.70;2278.40;;;;;;5032841;28;19909;-59
2022/10/30 02:02:51;;;;;;;;;;;281.70;2278.40;;;;;;5032467;28;20279;-60
2022/10/30 02:05:25;;;;;;;;;;;281.70;2278.40;;;;;;5032330;28;19922;-60
2022/10/30 02:07:50;;;;;;;;;;;281.70;2278.40;;;;;;5032726;28;19913;-61
2022/10/30 02:10:16;;;;;;;;;;;281.60;2278.40;;;;;;5032419;28;20445;-60
2022/10/30 02:12:42;;;;;;;;;;;281.60;2278.40;;;;;;5032602;28;20416;-60
2022/10/30 02:15:08;;;;;;;;;;;281.60;2278.40;;;;;;5032295;28;19945;-60
2022/10/30 02:17:33;;;;;;;;;;;256.90;2252.80;;;;;;5032349;28;19909;-60
2022/10/30 02:19:59;;;;;;;;;;;256.90;2252.80;;;;;;5032312;28;19952;-60
2022/10/30 02:22:24;;;;;;;;;;;256.90;2252.80;;;;;;5032541;28;20275;-60
2022/10/30 02:24:50;;;;;;;;;;;256.90;2252.80;;;;;;5032373;28;19970;-60
2022/10/30 02:27:15;;;;;;;;;;;256.90;2252.80;;;;;;5031893;28;19910;-61
2022/10/30 02:29:41;;;;;;;;;;;256.90;2252.80;;;;;;5032220;28;19913;-60
2022/10/30 02:32:06;;;;;;;;;;;256.90;2252.80;;;;;;5032063;28;19913;-60
2022/10/30 02:34:32;;;;;;;;;;;256.90;2252.80;;;;;;5032016;28;19913;-60
2022/10/30 02:36:58;;;;;;;;;;;256.90;2252.80;;;;;;5031954;28;20268;-60
2022/10/30 02:39:23;;;;;;;;;;;256.90;2252.80;;;;;;5031854;28;19915;-60
2022/10/30 02:41:49;;;;;;;;;;;256.90;2252.80;;;;;;5031717;28;19955;-60
2022/10/30 02:44:14;;;;;;;;;;;281.60;2278.40;;;;;;5031724;28;19935;-61
2022/10/30 02:46:40;;;;;;;;;;;281.60;2278.40;;;;;;5031927;28;19953;-60
2022/10/30 02:49:06;;;;;;;;;;;281.60;2278.40;;;;;;5031893;28;19909;-61
2022/10/30 02:51:32;;;;;;;;;;;281.60;2278.40;;;;;;5031851;28;20444;-61
2022/10/30 02:53:58;;;;;;;;;;;281.70;2278.40;;;;;;5031761;28;19916;-61
2022/10/30 02:56:23;;;;;;;;;;;281.70;2278.40;;;;;;5031885;28;20287;-61
2022/10/30 02:58:49;;;;;;;;;;;281.70;2278.40;;;;;;5031419;28;19909;-59
2022/10/30 03:01:16;;;;;;;;;;;281.60;2278.40;;;;;;5030736;28;19913;-60
2022/10/30 03:03:41;;;;;;;;;;;256.70;2252.80;;;;;;5031331;28;19920;-61
2022/10/30 03:06:08;;;;;;;;;;;256.70;2252.80;;;;;;5031342;28;19929;-60
2022/10/30 03:08:34;;;;;;;;;;;256.70;2252.80;;;;;;5031567;28;19948;-60
2022/10/30 03:11:06;;;;;;;;;;;256.70;2252.80;;;;;;5031468;28;20016;-60
2022/10/30 03:13:33;;;;;;;;;;;256.60;2252.80;;;;;;5031331;28;20008;-60
2022/10/30 03:16:02;;;;;;;;;;;256.60;2252.80;;;;;;5030996;28;19910;-61
2022/10/30 03:18:28;;;;;;;;;;;256.60;2252.80;;;;;;5030938;28;19920;-61
2022/10/30 03:20:58;;;;;;;;;;;256.70;2252.80;;;;;;5031169;28;19996;-60
2022/10/30 03:23:23;;;;;;;;;;;256.60;2252.80;;;;;;5031146;28;20359;-61
2022/10/30 03:25:53;;;;;;;;;;;256.60;2252.80;;;;;;5031133;28;19955;-61
2022/10/30 03:28:18;;;;;;;;;;;256.60;2252.80;;;;;;5030995;28;19916;-61
2022/10/30 03:30:44;;;;;;;;;;;256.60;2252.80;;;;;;5030973;28;19918;-61
2022/10/30 03:33:09;;;;;;;;;;;256.50;2252.80;;;;;;5031303;28;19909;-61
2022/10/30 03:35:35;;;;;;;;;;;256.50;2252.80;;;;;;5030578;28;19959;-60
2022/10/30 03:38:00;;;;;;;;;;;256.60;2252.80;;;;;;5030946;28;19918;-61
2022/10/30 03:40:26;;;;;;;;;;;256.70;2252.80;;;;;;5030703;28;19909;-60
2022/10/30 03:42:51;;;;;;;;;;;256.70;2252.80;;;;;;5030992;28;19909;-60
2022/10/30 03:45:17;;;;;;;;;;;256.80;2252.80;;;;;;5030674;28;19917;-61
2022/10/30 03:47:43;;;;;;;;;;;256.70;2252.80;;;;;;5030747;28;19909;-60
2022/10/30 03:50:08;;;;;;;;;;;256.60;2252.80;;;;;;5030549;28;19920;-60
2022/10/30 03:52:34;;;;;;;;;;;256.50;2252.80;;;;;;5030806;28;19956;-60
2022/10/30 03:55:00;;;;;;;;;;;256.50;2252.80;;;;;;5030725;28;20471;-60
2022/10/30 03:57:25;;;;;;;;;;;256.60;2252.80;;;;;;5030549;28;20347;-60
2022/10/30 03:59:51;;;;;;;;;;;256.60;2252.80;;;;;;5030727;28;19913;-60
2022/10/30 04:02:16;;;;;;;;;;;256.70;2252.80;;;;;;5030385;28;20012;-60
2022/10/30 04:04:42;;;;;;;;;;;256.70;2252.80;;;;;;5030291;28;19914;-60
2022/10/30 04:07:07;;;;;;;;;;;256.80;2252.80;;;;;;5030715;28;19968;-60
2022/10/30 04:09:33;;;;;;;;;;;256.80;2252.80;;;;;;5030703;28;19909;-60
2022/10/30 04:11:58;;;;;;;;;;;256.80;2252.80;;;;;;5031420;28;19932;-60
2022/10/30 04:14:24;;;;;;;;;;;256.80;2252.80;;;;;;5037137;28;20413;-61
2022/10/30 04:16:49;;;;;;;;;;;256.70;2252.80;;;;;;5036916;28;19956;-60
2022/10/30 04:19:15;;;;;;;;;;;256.70;2252.80;;;;;;5036798;28;19917;-61
2022/10/30 04:21:42;;;;;;;;;;;256.70;2252.80;;;;;;5037304;28;19913;-60
2022/10/30 04:24:08;;;;;;;;;;;256.80;2252.80;;;;;;5037161;28;19909;-61
2022/10/30 04:26:33;;;;;;;;;;;256.70;2252.80;;;;;;5037159;28;20291;-59
2022/10/30 04:28:59;;;;;;;;;;;256.70;2252.80;;;;;;5036690;28;19909;-60
2022/10/30 04:31:25;;;;;;;;;;;256.70;2252.80;;;;;;5036738;28;19917;-61
2022/10/30 04:33:50;;;;;;;;;;;256.70;2252.80;;;;;;5036798;28;19909;-60
2022/10/30 04:36:17;;;;;;;;;;;256.70;2252.80;;;;;;5036904;28;19983;-61
2022/10/30 04:38:42;;;;;;;;;;;256.70;2252.80;;;;;;5036865;28;19909;-61
2022/10/30 04:41:08;;;;;;;;;;;256.80;2252.80;;;;;;5036874;28;20359;-60
2022/10/30 04:43:33;;;;;;;;;;;256.70;2252.80;;;;;;5036917;28;19910;-61
2022/10/30 04:46:02;;;;;;;;;;;256.70;2252.80;;;;;;5036639;28;19913;-61
2022/10/30 04:48:28;;;;;;;;;;;256.70;2252.80;;;;;;5036397;28;20330;-61
2022/10/30 04:50:53;;;;;;;;;;;256.70;2252.80;;;;;;5036784;28;20016;-60
2022/10/30 04:53:20;;;;;;;;;;;256.70;2252.80;;;;;;5036856;28;19909;-60
2022/10/30 04:55:45;;;;;;;;;;;256.60;2252.80;;;;;;5036494;28;20373;-61
2022/10/30 04:58:11;;;;;;;;;;;256.60;2252.80;;;;;;5036780;28;19913;-60
2022/10/30 05:00:37;;;;;;;;;;;256.50;2252.80;;;;;;5036644;28;19917;-61
2022/10/30 05:03:03;;;;;;;;;;;256.50;2252.80;;;;;;5036645;28;19909;-61
2022/10/30 05:05:29;;;;;;;;;;;256.50;2252.80;;;;;;5036154;28;19921;-60
2022/10/30 05:07:54;;;;;;;;;;;256.50;2252.80;;;;;;5036664;28;19924;-61
2022/10/30 05:10:20;;;;;;;;;;;256.50;2252.80;;;;;;5036767;28;19917;-61
2022/10/30 05:12:46;;;;;;;;;;;256.50;2252.80;;;;;;5036259;28;19948;-61
2022/10/30 05:15:12;;;;;;;;;;;256.60;2252.80;;;;;;5036557;28;19913;-61
2022/10/30 05:17:38;;;;;;;;;;;256.70;2252.80;;;;;;5036397;28;19909;-60
2022/10/30 05:20:04;;;;;;;;;;;256.70;2252.80;;;;;;5036351;28;20355;-60
2022/10/30 05:22:29;;;;;;;;;;;256.70;2252.80;;;;;;5036238;28;19913;-61
2022/10/30 05:24:55;;;;;;;;;;;256.80;2252.80;;;;;;5033084;28;19915;-61
2022/10/30 05:27:20;;;;;;;;;;;256.90;2252.80;;;;;;5033412;28;19913;-61
2022/10/30 05:29:46;;;;;;;;;;;281.60;2278.40;;;;;;5032991;28;19910;-61
2022/10/30 05:32:11;;;;;;;;;;;281.70;2278.40;;;;;;5033265;28;19921;-61
2022/10/30 05:34:37;;;;;;;;;;;281.80;2278.40;;;;;;5033034;28;19917;-61
2022/10/30 05:37:02;;;;;;;;;;;281.90;2278.40;;;;;;5033148;28;20427;-62
2022/10/30 05:39:28;;;;;;;;;;;282.00;2278.40;;;;;;5033042;28;20283;-61
2022/10/30 05:41:54;;;;;;;;;;;282.00;2278.40;;;;;;5033071;28;19913;-61
2022/10/30 05:44:19;;;;;;;;;;;282.10;2278.40;;;;;;5033074;28;19909;-62
2022/10/30 05:46:45;;;;;;;;;;;282.20;2278.40;;;;;;5033024;28;20383;-61
2022/10/30 05:49:10;;;;;;;;;;;282.20;2278.40;;;;;;5033139;28;20012;-61
2022/10/30 05:51:36;;;;;;;;;;;282.10;2278.40;;;;;;5032797;28;20438;-61
2022/10/30 05:54:01;;;;;;;;;;;282.10;2278.40;;;;;;5032920;28;19910;-61
2022/10/30 05:56:27;;;;;;;;;;;282.20;2278.40;;;;;;5032586;28;19947;-61
2022/10/30 05:58:52;;;;;;;;;;;282.40;2278.40;;;;;;5032756;28;19962;-61
2022/10/30 06:01:18;;;;;;;;;;;282.50;2278.40;;;;;;5032654;28;19909;-62
2022/10/30 06:03:44;;;;;;;;;;;282.50;2278.40;;;;;;5032640;28;19916;-61
2022/10/30 06:06:09;;;;;;;;;;;307.30;2304.00;;;;;;5032450;28;19925;-60
2022/10/30 06:08:35;;;;;;;;;;;282.40;2278.40;;;;;;5032386;28;19909;-61
2022/10/30 06:11:00;;;;;;;;;;;282.20;2278.40;;;;;;5032701;28;19972;-61
2022/10/30 06:13:26;;;;;;;;;;;282.50;2278.40;;;;;;5032405;28;20287;-60
2022/10/30 06:15:55;;;;;;;;;;;307.30;2304.00;;;;;;5032408;28;20367;-61
2022/10/30 06:18:20;;;;;;;;;;;307.50;2304.00;;;;;;5032366;28;19948;-61
2022/10/30 06:20:46;;;;;;;;;;;307.60;2304.00;;;;;;5032068;28;19994;-61
2022/10/30 06:23:12;;;;;;;;;;;307.60;2304.00;;;;;;5032233;28;19909;-61
2022/10/30 06:25:37;;;;;;;;;;;307.80;2304.00;;;;;;5032244;28;19916;-61
2022/10/30 06:28:03;;;;;;;;;;;307.90;2304.00;;;;;;5032391;28;19996;-61
2022/10/30 06:30:28;;;;;;;;;;;308.10;2304.00;;;;;;5031893;28;19932;-61
2022/10/30 06:32:58;;;;;;;;;;;333.00;2329.60;;;;;;5031432;28;19913;-60
2022/10/30 06:35:23;;;;;;;;;;;333.20;2329.60;;;;;;5020673;28;20372;-60
2022/10/30 06:37:50;;;;;;;;;;;333.50;2329.60;;;;;;5026213;28;19971;-60
2022/10/30 06:40:15;;;;;;;;;;;358.40;2329.60;;;;;;5019833;28;19968;-60
2022/10/30 06:42:42;;;;;;;;;;;358.50;2329.60;;;;;;5012475;28;20355;-61
2022/10/30 06:45:08;;;;;;;;;;;358.50;2329.60;;;;;;5012121;28;19909;-61
2022/10/30 06:47:34;;;;;;;;;;;358.40;2329.60;;;;;;5012320;28;19917;-60
2022/10/30 06:49:59;;;;;;;;;;;358.40;2329.60;;;;;;5011891;28;19916;-60
2022/10/30 06:52:25;;;;;;;;;;;358.40;2329.60;;;;;;5011662;28;20392;-62
2022/10/30 06:54:50;;;;;;;;;;;358.40;2329.60;;;;;;5012366;28;19920;-60
2022/10/30 06:57:16;;;;;;;;;;;358.50;2329.60;;;;;;5011937;28;20387;-60
2022/10/30 06:59:41;;;;;;;;;;;358.70;2329.60;;;;;;5012112;28;20386;-60
2022/10/30 07:02:09;;;;;;;;;;;358.60;2329.60;;;;;;5012014;28;19910;-60
2022/10/30 07:04:35;;;;;;;;;;;358.70;2329.60;;;;;;5011457;28;19944;-61
2022/10/30 07:07:00;;;;;;;;;;;358.80;2329.60;;;;;;5011820;28;19968;-60
2022/10/30 07:09:26;;;;;;;;;;;358.90;2329.60;;;;;;5011462;28;19913;-60
2022/10/30 07:11:51;;;;;;;;;;;359.20;2329.60;;;;;;5011801;28;19924;-60
2022/10/30 07:14:17;;;;;;;;;;;384.10;2329.60;;;;;;5011443;28;19909;-61
2022/10/30 07:16:42;;;;;;;;;;;384.30;2329.60;;;;;;5011683;28;19910;-60
2022/10/30 07:19:08;;;;;;;;;;;384.40;2329.60;;;;;;5011323;28;19909;-59
2022/10/30 07:21:33;;;;;;;;;;;384.90;2329.60;;;;;;5011503;28;19910;-61
2022/10/30 07:23:59;;;;;;;;;;;409.80;2355.20;;;;;;5011243;28;19909;-61
2022/10/30 07:26:25;;;;;;;;;;;384.90;2329.60;;;;;;5014063;28;19917;-59
2022/10/30 07:28:50;;;;;;;;;;;384.40;2329.60;;;;;;5014055;28;19956;-59
2022/10/30 07:31:16;;;;;;;;;;;384.40;2329.60;;;;;;5011015;28;20372;-61
2022/10/30 07:33:41;;;;;;;;;;;384.80;2329.60;;;;;;5010993;28;19964;-58
2022/10/30 07:36:07;;;;;;;;;;;409.70;2355.20;;;;;;5011184;28;19920;-59
2022/10/30 07:38:32;;;;;;;;;;;435.90;2355.20;;;;;;5011284;28;19910;-59
2022/10/30 07:40:58;;;;;;;;;;;461.10;2380.80;;;;;;5010949;28;20021;-60
2022/10/30 07:43:23;;;;;;;;;;;486.50;2380.80;;;;;;5011344;28;20351;-59
2022/10/30 07:45:49;;;;;;;;;;;486.80;2355.20;;;;;;5010960;28;20392;-59
2022/10/30 07:48:15;;;;;;;;;;;486.40;2355.20;;;;;;5010711;28;19910;-60
2022/10/30 07:50:40;;;;;;;;;;;486.60;2380.80;;;;;;5011244;28;20381;-60
2022/10/30 07:53:06;;;;;;;;;;;537.90;2150.40;;;;;;5011097;28;20371;-60
2022/10/30 07:55:31;;;;;;;;;;;563.40;2048.00;;;;;;5011143;28;19913;-59
2022/10/30 07:57:57;;;;;;;;;;;563.30;2048.00;;;;;;5010906;28;19960;-60
2022/10/30 08:00:22;;;;;;;;;;;538.50;2022.40;;;;;;5011088;28;19917;-60
2022/10/30 08:02:54;;;;;;;;;;;563.80;1996.80;;;;;;5010730;28;19916;-60
2022/10/30 08:05:19;;;;;;;;;;;589.60;1894.40;;;;;;5010307;28;19917;-60
2022/10/30 08:07:45;;;;;;;;;;;614.50;1868.80;;;;;;5010762;28;19987;-61
2022/10/30 08:10:11;;;;;;;;;;;614.90;1792.00;;;;;;5010779;28;19942;-60
2022/10/30 08:12:39;;;;;;;;;;;640.90;1689.60;;;;;;5010994;28;19913;-59
2022/10/30 08:15:05;;;;;;;;;;;666.00;1664.00;;;;;;5010999;28;19963;-60
2022/10/30 08:17:31;;;;;;;;;;;691.80;1587.20;;;;;;5010871;28;19914;-60
2022/10/30 08:19:56;;;;;;;;;;;666.20;1587.20;;;;;;5010430;28;19916;-60
2022/10/30 08:22:22;;;;;;;;;;;614.90;1715.20;;;;;;5010779;28;19909;-59
2022/10/30 08:24:47;;;;;;;;;;;614.80;1766.40;;;;;;5010334;28;19909;-60
2022/10/30 08:27:13;;;;;;;;;;;615.00;1740.80;;;;;;5010481;28;19921;-59
2022/10/30 08:29:38;;;;;;;;;;;615.20;1715.20;;;;;;5010683;28;19917;-59
2022/10/30 08:32:04;;;;;;;;;;;665.90;1664.00;;;;;;5010649;28;20354;-60
2022/10/30 08:34:31;;;;;;;;;;;666.30;1587.20;;;;;;5015229;28;19916;-60
2022/10/30 08:36:57;;;;;;;;;;;665.60;1638.40;;;;;;5030478;28;19917;-60
2022/10/30 08:39:22;;;;;;;;;;;640.90;1587.20;;;;;;5030304;28;20274;-61
2022/10/30 08:41:48;;;;;;;;;;;640.20;1638.40;;;;;;5029987;28;19910;-60
2022/10/30 08:44:13;;;;;;;;;;;640.00;1664.00;;;;;;5030294;28;19971;-60
2022/10/30 08:46:39;;;;;;;;;;;614.90;1715.20;;;;;;5030141;28;20363;-59
2022/10/30 08:49:04;;;;;;;;;;;589.60;1766.40;;;;;;5030370;28;20318;-60
2022/10/30 08:51:33;;;;;;;;;;;589.00;1817.60;;;;;;5029952;28;19971;-60
2022/10/30 08:53:59;;;;;;;;;;;588.90;1843.20;;;;;;5030020;28;19971;-60
2022/10/30 08:56:25;;;;;;;;;;;563.60;1894.40;;;;;;5030069;28;20406;-60
2022/10/30 08:58:50;;;;;;;;;;;563.50;1894.40;;;;;;5030433;28;19909;-60
2022/10/30 09:01:17;;;;;;;;;;;563.60;1868.80;;;;;;5033562;28;19909;-61
2022/10/30 09:03:43;;;;;;;;;;;563.70;1868.80;;;;;;5033505;28;20386;-60
2022/10/30 09:06:09;;;;;;;;;;;564.00;1868.80;;;;;;5033487;28;19926;-60
2022/10/30 09:08:35;;;;;;;;;;;588.90;1868.80;;;;;;5033903;28;20344;-60
2022/10/30 09:11:00;;;;;;;;;;;563.90;1894.40;;;;;;5033688;28;19921;-60
2022/10/30 09:13:26;;;;;;;;;;;588.80;1843.20;;;;;;5033351;28;19915;-61
2022/10/30 09:15:51;;;;;;;;;;;588.90;1843.20;;;;;;5033764;28;19966;-61
2022/10/30 09:18:17;;;;;;;;;;;589.10;1817.60;;;;;;5033462;28;19916;-60
2022/10/30 09:20:43;;;;;;;;;;;588.90;1843.20;;;;;;5033448;28;20279;-61
2022/10/30 09:23:08;;;;;;;;;;;588.80;1894.40;;;;;;5033323;28;19956;-61
2022/10/30 09:25:34;;;;;;;;;;;563.90;1894.40;;;;;;5033468;28;19916;-60
2022/10/30 09:27:59;;;;;;;;;;;563.70;1817.60;;;;;;5033178;28;19913;-60
2022/10/30 09:30:25;;;;;;;;;;;538.50;1945.60;;;;;;5033330;28;20368;-61
2022/10/30 09:32:54;;;;;;;;;;;537.60;1996.80;;;;;;5033373;28;20321;-60
2022/10/30 09:35:20;;;;;;;;;;;512.70;1996.80;;;;;;5032946;28;19913;-60
2022/10/30 09:37:45;;;;;;;;;;;512.60;2022.40;;;;;;5032887;28;19917;-60
2022/10/30 09:40:37;;;;;;;;;;;512.40;2022.40;;;;;;5033159;28;19913;-60
2022/10/30 09:43:09;;;;;;;;;;;512.40;2022.40;;;;;;5032210;28;19910;-60
2022/10/30 09:45:53;;;;;;;;;;;512.30;2048.00;;;;;;5033022;28;19909;-60
2022/10/30 09:48:31;;;;;;;;;;;512.30;2048.00;;;;;;5033181;28;19939;-60
2022/10/30 09:51:11;;;;;;;;;;;512.30;2048.00;;;;;;5032658;28;19917;-60
2022/10/30 09:53:55;;;;;;;;;;;512.50;2022.40;;;;;;5032867;28;19909;-60
2022/10/30 09:56:38;;;;;;;;;;;512.30;2022.40;;;;;;5033054;28;19913;-61
2022/10/30 09:59:19;;;;;;;;;;;512.70;1996.80;;;;;;5032918;28;19909;-60
2022/10/30 10:01:45;;;;;;;;;;;512.70;2022.40;;;;;;5032929;28;19913;-61
2022/10/30 10:04:25;;;;;;;;;;;512.80;1996.80;;;;;;5032761;28;19913;-60
2022/10/30 10:07:06;;;;;;;;;;;512.80;2022.40;;;;;;5032462;28;19979;-60
2022/10/30 10:09:33;;;;;;;;;;;512.90;2022.40;;;;;;5032676;28;20012;-60
2022/10/30 10:12:04;;;;;;;;;;;512.80;2022.40;;;;;;5032178;28;19924;-61
2022/10/30 10:14:31;;;;;;;;;;;512.90;2022.40;;;;;;5032394;28;19909;-60
2022/10/30 10:16:59;;;;;;;;;;;538.00;1971.20;;;;;;5032303;28;19996;-61
2022/10/30 10:19:34;;;;;;;;;;;538.20;1945.60;;;;;;5032323;28;19945;-59
2022/10/30 10:22:01;;;;;;;;;;;538.30;1894.40;;;;;;5032126;28;19916;-60
2022/10/30 10:24:32;;;;;;;;;;;538.00;1868.80;;;;;;5032076;28;20011;-61
2022/10/30 10:27:07;;;;;;;;;;;538.00;1920.00;;;;;;5032166;28;20391;-61
2022/10/30 10:29:51;;;;;;;;;;;537.70;1920.00;;;;;;5032182;28;19916;-60
2022/10/30 10:32:16;;;;;;;;;;;537.70;1945.60;;;;;;5032003;28;19917;-60
2022/10/30 10:34:48;;;;;;;;;;;537.90;1971.20;;;;;;5031948;28;20409;-61
2022/10/30 10:37:16;;;;;;;;;;;538.00;1971.20;;;;;;5032381;28;20427;-61
2022/10/30 10:39:45;;;;;;;;;;;537.70;2022.40;;;;;;5031996;28;19924;-60
2022/10/30 10:42:10;;;;;;;;;;;512.70;1996.80;;;;;;5031945;28;19916;-61
2022/10/30 10:45:08;;;;;;;;;;;512.60;2048.00;;;;;;5031882;28;20283;-60
2022/10/30 10:48:00;;;;;;;;;;;512.60;2022.40;;;;;;5029736;28;19909;-60
2022/10/30 10:50:28;;;;;;;;;;;512.80;2022.40;;;;;;5007357;28;19913;-60
2022/10/30 10:53:02;;;;;;;;;;;512.80;2022.40;;;;;;5029786;28;20418;-60
2022/10/30 10:55:32;;;;;;;;;;;512.60;2048.00;;;;;;5029411;28;19909;-60
2022/10/30 10:58:03;;;;;;;;;;;512.70;2022.40;;;;;;5029449;28;20007;-60
2022/10/30 11:00:29;;;;;;;;;;;512.50;2022.40;;;;;;5029451;28;19909;-60
2022/10/30 11:03:03;;;;;;;;;;;512.50;2048.00;;;;;;5029499;28;19909;-60
2022/10/30 11:05:38;;;;;;;;;;;512.50;2073.60;;;;;;5028731;28;20277;-60
2022/10/30 11:08:14;;;;;;;;;;;512.50;2099.20;;;;;;5029289;28;19975;-60
2022/10/30 11:10:40;;;;;;;;;;;512.40;2099.20;;;;;;5028903;28;19970;-60
2022/10/30 11:13:05;;;;;;;;;;;512.60;2124.80;;;;;;5029347;28;19980;-60
2022/10/30 11:15:37;;;;;;;;;;;512.30;2176.00;;;;;;5029246;28;20508;-60
2022/10/30 11:18:04;;;;;;;;;;;512.50;2176.00;;;;;;5029197;28;20468;-60
2022/10/30 11:20:30;;;;;;;;;;;512.70;2150.40;;;;;;5028883;28;19909;-60
2022/10/30 11:22:55;;;;;;;;;;;512.70;2176.00;;;;;;5029261;28;20388;-59
2022/10/30 11:25:25;;;;;;;;;;;512.90;2150.40;;;;;;5031448;28;19913;-60
2022/10/30 11:27:55;;;;;;;;;;;512.90;2176.00;;;;;;5031026;28;19909;-60
2022/10/30 11:30:22;;;;;;;;;;;512.90;2150.40;;;;;;5030822;28;19923;-58
2022/10/30 11:32:47;;;;;;;;;;;512.90;2176.00;;;;;;5031040;28;19962;-58
2022/10/30 11:35:14;;;;;;;;;;;512.90;2176.00;;;;;;5030827;28;20055;-58
2022/10/30 11:37:41;;;;;;;;;;;537.70;2176.00;;;;;;5030914;28;20397;-57
2022/10/30 11:40:07;;;;;;;;;;;537.80;2176.00;;;;;;5030939;28;20056;-58
2022/10/30 11:42:33;;;;;;;;;;;537.90;2150.40;;;;;;5030964;28;20385;-57
2022/10/30 11:44:59;;;;;;;;;;;537.90;2176.00;;;;;;5030693;28;19955;-57
2022/10/30 11:47:35;;;;;;;;;;;538.00;2150.40;;;;;;5030736;28;19964;-58
2022/10/30 11:50:05;;;;;;;;;;;537.80;2150.40;;;;;;5030674;28;19909;-57
2022/10/30 11:52:35;;;;;;;;;;;537.70;2150.40;;;;;;5030681;28;19920;-57
2022/10/30 11:55:07;;;;;;;;;;;538.00;2124.80;;;;;;5030571;28;19909;-57
2022/10/30 11:57:34;;;;;;;;;;;538.30;2124.80;;;;;;5029574;28;20434;-56
2022/10/30 12:00:01;;;;;;;;;;;538.30;2099.20;;;;;;5030640;28;19932;-57
2022/10/30 12:02:38;;;;;;;;;;;538.20;2099.20;;;;;;5030626;28;19909;-58
2022/10/30 12:05:23;;;;;;;;;;;538.30;2099.20;;;;;;5030158;28;19928;-57
2022/10/30 12:07:48;;;;;;;;;;;538.40;2073.60;;;;;;5030469;28;19913;-59
2022/10/30 12:10:24;;;;;;;;;;;538.40;2073.60;;;;;;5030594;28;20366;-57
2022/10/30 12:12:49;;;;;;;;;;;538.20;2073.60;;;;;;5030285;28;19919;-57
2022/10/30 12:15:15;;;;;;;;;;;538.40;2073.60;;;;;;5030420;28;19909;-58
2022/10/30 12:17:49;;;;;;;;;;;538.30;2099.20;;;;;;5030331;28;19910;-58
2022/10/30 12:20:15;;;;;;;;;;;538.50;2099.20;;;;;;5030086;28;19913;-57
2022/10/30 12:22:40;;;;;;;;;;;538.40;2099.20;;;;;;5030427;28;19992;-57
2022/10/30 12:25:17;;;;;;;;;;;538.50;2073.60;;;;;;5030175;28;19963;-57
2022/10/30 12:27:42;;;;;;;;;;;538.50;2048.00;;;;;;5030276;28;19909;-57
2022/10/30 12:30:18;;;;;;;;;;;563.20;2073.60;;;;;;5030043;28;19909;-57
2022/10/30 12:32:50;;;;;;;;;;;563.20;2073.60;;;;;;5030416;28;19909;-57
2022/10/30 12:35:19;;;;;;;;;;;563.20;2073.60;;;;;;5032545;28;19916;-59
2022/10/30 12:37:46;;;;;;;;;;;563.20;2048.00;;;;;;5032628;28;19953;-57
2022/10/30 12:40:17;;;;;;;;;;;563.20;2073.60;;;;;;5032690;28;20007;-57
2022/10/30 12:43:03;;;;;;;;;;;563.30;2048.00;;;;;;5032596;28;19968;-57
2022/10/30 12:45:38;;;;;;;;;;;563.30;2048.00;;;;;;5032396;28;19938;-57
2022/10/30 12:48:14;;;;;;;;;;;563.30;2048.00;;;;;;5032498;28;19931;-57
2022/10/30 12:50:42;;;;;;;;;;;563.30;2073.60;;;;;;5032334;28;19979;-59
2022/10/30 12:53:17;;;;;;;;;;;563.30;2073.60;;;;;;5032374;28;19959;-59
2022/10/30 12:55:46;;;;;;;;;;;563.40;2073.60;;;;;;5032373;28;20319;-58
2022/10/30 12:58:24;;;;;;;;;;;563.30;2099.20;;;;;;5032382;28;19909;-62
2022/10/30 13:00:59;;;;;;;;;;;563.30;2099.20;;;;;;5032127;28;19909;-61
2022/10/30 13:03:29;;;;;;;;;;;563.40;2099.20;;;;;;5031836;28;20081;-61
2022/10/30 13:05:56;;;;;;;;;;;563.40;2124.80;;;;;;5031878;28;19928;-60
2022/10/30 13:08:26;;;;;;;;;;;563.30;2124.80;;;;;;5032226;28;20456;-60
2022/10/30 13:10:53;;;;;;;;;;;563.40;2124.80;;;;;;5032000;28;20020;-60
2022/10/30 13:13:26;;;;;;;;;;;563.40;2124.80;;;;;;5031912;28;19909;-60
2022/10/30 13:15:53;;;;;;;;;;;563.30;2124.80;;;;;;5031684;28;19920;-59
2022/10/30 13:18:21;;;;;;;;;;;563.40;2124.80;;;;;;5031804;28;19909;-61
2022/10/30 13:20:52;;;;;;;;;;;563.40;2124.80;;;;;;5031735;28;19916;-59
2022/10/30 13:23:21;;;;;;;;;;;563.50;2099.20;;;;;;5031650;28;19975;-59
2022/10/30 13:25:49;;;;;;;;;;;563.50;2124.80;;;;;;5031708;28;19963;-60
2022/10/30 13:28:35;;;;;;;;;;;563.60;2099.20;;;;;;5031604;28;19944;-59
2022/10/30 13:31:07;;;;;;;;;;;563.60;2124.80;;;;;;5031450;28;19917;-60
2022/10/30 13:33:43;;;;;;;;;;;563.50;2124.80;;;;;;5031642;28;20311;-59
2022/10/30 13:36:21;;;;;;;;;;;563.50;2124.80;;;;;;5031700;28;19921;-59
2022/10/30 13:39:07;;;;;;;;;;;563.60;2099.20;;;;;;5031750;28;20345;-59
2022/10/30 13:41:35;;;;;;;;;;;563.60;2099.20;;;;;;5031187;28;19928;-59
2022/10/30 13:44:12;;;;;;;;;;;563.50;2099.20;;;;;;5031594;28;20329;-59
2022/10/30 13:46:41;;;;;;;;;;;563.40;2124.80;;;;;;5030635;28;20334;-60